createdAt,value
2019-03-21T00:00:03.195Z,1031.22
2019-03-21T00:01:03.236Z,1031.23
2019-03-21T00:02:03.298Z,1031.21
2019-03-21T00:03:03.356Z,1031.25
2019-03-21T00:04:03.417Z,1031.24
2019-03-21T00:05:03.484Z,1031.24
2019-03-21T00:06:03.543Z,1031.19
2019-03-21T00:07:03.600Z,1031.21
2019-03-21T00:08:03.663Z,1031.17
2019-03-21T00:09:03.716Z,1031.21
2019-03-21T00:10:03.788Z,1031.23
2019-03-21T00:11:03.846Z,1031.19
2019-03-21T00:12:03.901Z,1031.18
2019-03-21T00:13:03.963Z,1031.17
2019-03-21T00:14:07.314Z,1031.17
2019-03-21T00:15:04.134Z,1031.17
2019-03-21T00:16:04.143Z,1031.21
2019-03-21T00:17:04.202Z,1031.18
2019-03-21T00:18:04.261Z,1031.21
2019-03-21T00:19:04.319Z,1031.20
2019-03-21T00:20:04.394Z,1031.21
2019-03-21T00:21:04.450Z,1031.22
2019-03-21T00:22:04.505Z,1031.22
2019-03-21T00:23:04.567Z,1031.23
2019-03-21T00:24:04.624Z,1031.25
2019-03-21T00:25:04.695Z,1031.26
2019-03-21T00:26:04.758Z,1031.24
2019-03-21T00:27:04.805Z,1031.21
2019-03-21T00:28:04.864Z,1031.26
2019-03-21T00:29:04.928Z,1031.25
2019-03-21T00:30:04.996Z,1031.22
2019-03-21T00:31:05.054Z,1031.23
2019-03-21T00:32:05.109Z,1031.24
2019-03-21T00:33:05.168Z,1031.29
2019-03-21T00:34:05.264Z,1031.32
2019-03-21T00:35:05.290Z,1031.32
2019-03-21T00:36:05.365Z,1031.28
2019-03-21T00:37:05.413Z,1031.28
2019-03-21T00:38:05.472Z,1031.27
2019-03-21T00:39:05.531Z,1031.27
2019-03-21T00:40:05.590Z,1031.28
2019-03-21T00:41:05.661Z,1031.32
2019-03-21T00:42:05.721Z,1031.31
2019-03-21T00:43:05.780Z,1031.29
2019-03-21T00:44:05.836Z,1031.32
2019-03-21T00:45:05.894Z,1031.35
2019-03-21T00:46:05.961Z,1031.30
2019-03-21T00:47:06.020Z,1031.30
2019-03-21T00:48:06.075Z,1031.30
2019-03-21T00:49:06.135Z,1031.30
2019-03-21T00:50:06.200Z,1031.27
2019-03-21T00:51:06.284Z,1031.27
2019-03-21T00:52:06.316Z,1031.29
2019-03-21T00:53:06.376Z,1031.24
2019-03-21T00:54:06.438Z,1031.27
2019-03-21T00:55:06.498Z,1031.23
2019-03-21T00:56:06.603Z,1031.24
2019-03-21T00:57:06.633Z,1031.26
2019-03-21T00:58:06.679Z,1031.24
2019-03-21T00:59:06.738Z,1031.21
2019-03-21T01:00:06.798Z,1031.20
2019-03-21T01:01:06.865Z,1031.22
2019-03-21T01:02:06.927Z,1031.18
2019-03-21T01:03:06.983Z,1031.20
2019-03-21T01:04:07.042Z,1031.17
2019-03-21T01:05:07.101Z,1031.21
2019-03-21T01:06:07.185Z,1031.19
2019-03-21T01:07:07.220Z,1031.19
2019-03-21T01:08:07.283Z,1031.19
2019-03-21T01:09:07.342Z,1031.23
2019-03-21T01:10:07.406Z,1031.23
2019-03-21T01:11:07.471Z,1031.20
2019-03-21T01:12:07.531Z,1031.21
2019-03-21T01:13:07.582Z,1031.14
2019-03-21T01:14:07.642Z,1031.16
2019-03-21T01:15:07.705Z,1031.17
2019-03-21T01:16:07.773Z,1031.17
2019-03-21T01:17:07.835Z,1031.16
2019-03-21T01:18:07.887Z,1031.15
2019-03-21T01:19:07.946Z,1031.14
2019-03-21T01:20:08.005Z,1031.13
2019-03-21T01:21:08.076Z,1031.14
2019-03-21T01:22:08.137Z,1031.15
2019-03-21T01:23:08.187Z,1031.17
2019-03-21T01:24:08.246Z,1031.16
2019-03-21T01:25:08.305Z,1031.17
2019-03-21T01:26:08.374Z,1031.17
2019-03-21T01:27:08.435Z,1031.11
2019-03-21T01:28:08.486Z,1031.12
2019-03-21T01:29:08.551Z,1031.11
2019-03-21T01:30:08.608Z,1031.11
2019-03-21T01:31:08.675Z,1031.08
2019-03-21T01:32:08.735Z,1031.10
2019-03-21T01:33:08.791Z,1031.07
2019-03-21T01:34:08.851Z,1031.08
2019-03-21T01:35:08.909Z,1031.07
2019-03-21T01:36:08.975Z,1031.10
2019-03-21T01:37:09.035Z,1031.12
2019-03-21T01:38:09.091Z,1031.08
2019-03-21T01:39:09.149Z,1031.05
2019-03-21T01:40:09.212Z,1031.09
2019-03-21T01:41:09.510Z,1031.06
2019-03-21T01:42:09.332Z,1031.06
2019-03-21T01:43:09.393Z,1031.05
2019-03-21T01:44:09.453Z,1031.06
2019-03-21T01:45:09.513Z,1031.06
2019-03-21T01:46:09.579Z,1031.06
2019-03-21T01:47:09.639Z,1031.06
2019-03-21T01:48:09.690Z,1031.06
2019-03-21T01:49:09.754Z,1031.09
2019-03-21T01:50:09.813Z,1031.09
2019-03-21T01:51:09.881Z,1031.06
2019-03-21T01:52:09.938Z,1031.07
2019-03-21T01:53:09.990Z,1031.04
2019-03-21T01:54:10.049Z,1031.04
2019-03-21T01:55:11.451Z,1031.05
2019-03-21T01:56:10.218Z,1031.05
2019-03-21T01:57:10.243Z,1031.09
2019-03-21T01:58:10.301Z,1031.11
2019-03-21T01:59:10.353Z,1031.13
2019-03-21T02:00:10.417Z,1031.11
2019-03-21T02:01:10.485Z,1031.10
2019-03-21T02:02:10.543Z,1031.05
2019-03-21T02:03:10.597Z,1031.01
2019-03-21T02:04:10.653Z,1030.98
2019-03-21T02:05:10.720Z,1030.93
2019-03-21T02:06:10.782Z,1030.95
2019-03-21T02:07:10.842Z,1030.97
2019-03-21T02:08:10.893Z,1030.96
2019-03-21T02:09:10.958Z,1030.95
2019-03-21T02:10:11.017Z,1030.94
2019-03-21T02:11:11.094Z,1030.99
2019-03-21T02:12:11.142Z,1030.98
2019-03-21T02:13:11.198Z,1030.96
2019-03-21T02:14:11.256Z,1030.91
2019-03-21T02:15:11.315Z,1030.91
2019-03-21T02:16:11.383Z,1030.94
2019-03-21T02:17:11.443Z,1030.89
2019-03-21T02:18:11.499Z,1030.88
2019-03-21T02:19:11.559Z,1030.87
2019-03-21T02:20:11.618Z,1030.88
2019-03-21T02:21:11.693Z,1030.85
2019-03-21T02:22:11.747Z,1030.85
2019-03-21T02:23:11.847Z,1030.84
2019-03-21T02:24:11.858Z,1030.84
2019-03-21T02:25:11.918Z,1030.84
2019-03-21T02:26:11.984Z,1030.84
2019-03-21T02:27:12.048Z,1030.83
2019-03-21T02:28:12.105Z,1030.85
2019-03-21T02:29:12.159Z,1030.85
2019-03-21T02:30:12.218Z,1030.85
2019-03-21T02:31:12.281Z,1030.86
2019-03-21T02:32:12.360Z,1030.87
2019-03-21T02:33:12.400Z,1030.88
2019-03-21T02:34:12.459Z,1030.85
2019-03-21T02:35:12.517Z,1030.85
2019-03-21T02:36:12.580Z,1030.85
2019-03-21T02:37:12.646Z,1030.82
2019-03-21T02:38:12.704Z,1030.81
2019-03-21T02:39:12.760Z,1030.83
2019-03-21T02:40:12.815Z,1030.84
2019-03-21T02:41:12.880Z,1030.79
2019-03-21T02:42:12.947Z,1030.78
2019-03-21T02:43:13.006Z,1030.78
2019-03-21T02:44:13.061Z,1030.77
2019-03-21T02:45:13.197Z,1030.75
2019-03-21T02:46:13.183Z,1030.74
2019-03-21T02:47:13.271Z,1030.75
2019-03-21T02:48:13.295Z,1030.77
2019-03-21T02:49:13.366Z,1030.74
2019-03-21T02:50:13.418Z,1030.77
2019-03-21T02:51:13.489Z,1030.74
2019-03-21T02:52:13.545Z,1030.73
2019-03-21T02:53:13.607Z,1030.73
2019-03-21T02:54:13.654Z,1030.73
2019-03-21T02:55:13.714Z,1030.77
2019-03-21T02:56:13.777Z,1030.75
2019-03-21T02:57:13.853Z,1030.76
2019-03-21T02:58:13.906Z,1030.75
2019-03-21T02:59:13.957Z,1030.75
2019-03-21T03:00:14.014Z,1030.77
2019-03-21T03:01:14.074Z,1030.79
2019-03-21T03:02:14.233Z,1030.81
2019-03-21T03:03:14.199Z,1030.79
2019-03-21T03:04:14.262Z,1030.79
2019-03-21T03:05:14.319Z,1030.80
2019-03-21T03:06:14.376Z,1030.82
2019-03-21T03:07:14.446Z,1030.78
2019-03-21T03:08:14.504Z,1030.82
2019-03-21T03:09:14.558Z,1030.82
2019-03-21T03:10:14.617Z,1030.85
2019-03-21T03:11:14.675Z,1030.87
2019-03-21T03:12:14.744Z,1030.85
2019-03-21T03:13:14.799Z,1030.86
2019-03-21T03:14:14.857Z,1030.87
2019-03-21T03:15:22.551Z,1030.89
2019-03-21T03:16:14.976Z,1030.87
2019-03-21T03:17:15.045Z,1030.84
2019-03-21T03:18:15.102Z,1030.90
2019-03-21T03:19:15.154Z,1030.88
2019-03-21T03:20:15.229Z,1030.83
2019-03-21T03:21:15.273Z,1030.88
2019-03-21T03:22:15.345Z,1030.88
2019-03-21T03:23:15.400Z,1030.86
2019-03-21T03:24:15.454Z,1030.88
2019-03-21T03:25:15.514Z,1030.90
2019-03-21T03:26:15.576Z,1030.88
2019-03-21T03:27:15.644Z,1030.92
2019-03-21T03:28:15.701Z,1030.90
2019-03-21T03:29:15.755Z,1030.92
2019-03-21T03:30:15.813Z,1030.93
2019-03-21T03:31:15.900Z,1030.90
2019-03-21T03:32:15.983Z,1030.92
2019-03-21T03:33:16.005Z,1030.92
2019-03-21T03:34:16.055Z,1030.88
2019-03-21T03:35:16.122Z,1030.87
2019-03-21T03:36:16.172Z,1030.86
2019-03-21T03:37:16.258Z,1030.80
2019-03-21T03:38:16.292Z,1030.83
2019-03-21T03:39:16.349Z,1030.82
2019-03-21T03:40:16.410Z,1030.81
2019-03-21T03:41:16.468Z,1030.84
2019-03-21T03:42:16.540Z,1030.83
2019-03-21T03:43:16.599Z,1030.88
2019-03-21T03:44:16.649Z,1030.90
2019-03-21T03:45:16.709Z,1030.88
2019-03-21T03:46:16.763Z,1030.86
2019-03-21T03:47:16.839Z,1030.89
2019-03-21T03:48:19.710Z,1030.87
2019-03-21T03:49:16.948Z,1030.89
2019-03-21T03:50:17.011Z,1030.91
2019-03-21T03:51:17.107Z,1030.89
2019-03-21T03:52:17.139Z,1030.89
2019-03-21T03:53:17.186Z,1030.93
2019-03-21T03:54:17.254Z,1030.90
2019-03-21T03:55:17.304Z,1030.95
2019-03-21T03:56:17.365Z,1030.94
2019-03-21T03:57:17.430Z,1030.89
2019-03-21T03:58:17.497Z,1030.90
2019-03-21T03:59:17.542Z,1030.93
2019-03-21T04:00:17.605Z,1030.91
2019-03-21T04:01:17.662Z,1030.91
2019-03-21T04:02:17.731Z,1030.93
2019-03-21T04:03:17.793Z,1030.95
2019-03-21T04:04:17.843Z,1030.96
2019-03-21T04:05:17.905Z,1030.96
2019-03-21T04:06:17.963Z,1031.00
2019-03-21T04:07:18.029Z,1031.01
2019-03-21T04:08:18.087Z,1031.00
2019-03-21T04:09:18.143Z,1030.99
2019-03-21T04:10:18.205Z,1030.99
2019-03-21T04:11:18.259Z,1030.97
2019-03-21T04:12:18.335Z,1031.02
2019-03-21T04:13:18.381Z,1031.02
2019-03-21T04:14:18.437Z,1031.02
2019-03-21T04:15:18.493Z,1031.02
2019-03-21T04:16:18.556Z,1031.06
2019-03-21T04:17:18.628Z,1031.00
2019-03-21T04:18:18.681Z,1031.04
2019-03-21T04:19:18.747Z,1031.02
2019-03-21T04:20:18.799Z,1031.08
2019-03-21T04:21:18.860Z,1031.08
2019-03-21T04:22:18.923Z,1031.09
2019-03-21T04:23:18.983Z,1031.08
2019-03-21T04:24:19.033Z,1031.09
2019-03-21T04:25:19.094Z,1031.08
2019-03-21T04:26:19.155Z,1031.09
2019-03-21T04:27:19.541Z,1031.10
2019-03-21T04:28:19.270Z,1031.11
2019-03-21T04:29:19.330Z,1031.11
2019-03-21T04:30:19.397Z,1031.08
2019-03-21T04:31:19.452Z,1031.08
2019-03-21T04:32:19.516Z,1031.05
2019-03-21T04:33:22.504Z,1031.08
2019-03-21T04:34:19.632Z,1031.04
2019-03-21T04:35:19.699Z,1031.06
2019-03-21T04:36:19.750Z,1031.04
2019-03-21T04:37:19.808Z,1031.02
2019-03-21T04:38:19.874Z,1031.11
2019-03-21T04:39:19.934Z,1031.08
2019-03-21T04:40:19.985Z,1031.08
2019-03-21T04:41:20.044Z,1031.07
2019-03-21T04:42:20.107Z,1031.07
2019-03-21T04:43:20.255Z,1031.08
2019-03-21T04:44:20.229Z,1031.05
2019-03-21T04:45:20.287Z,1031.05
2019-03-21T04:46:20.346Z,1031.06
2019-03-21T04:47:20.404Z,1031.04
2019-03-21T04:48:20.473Z,1031.09
2019-03-21T04:49:20.532Z,1031.09
2019-03-21T04:50:20.583Z,1031.08
2019-03-21T04:51:20.640Z,1031.09
2019-03-21T04:52:20.699Z,1031.09
2019-03-21T04:53:20.766Z,1031.13
2019-03-21T04:54:20.825Z,1031.15
2019-03-21T04:55:20.878Z,1031.08
2019-03-21T04:56:20.936Z,1031.11
2019-03-21T04:57:21.001Z,1031.12
2019-03-21T04:58:21.063Z,1031.08
2019-03-21T04:59:21.125Z,1031.05
2019-03-21T05:00:21.177Z,1031.12
2019-03-21T05:01:21.239Z,1031.10
2019-03-21T05:02:21.295Z,1031.09
2019-03-21T05:03:21.374Z,1031.06
2019-03-21T05:04:21.416Z,1031.07
2019-03-21T05:05:21.472Z,1031.08
2019-03-21T05:06:21.532Z,1031.07
2019-03-21T05:07:21.591Z,1031.04
2019-03-21T05:08:21.659Z,1031.09
2019-03-21T05:09:21.717Z,1031.10
2019-03-21T05:10:21.769Z,1031.09
2019-03-21T05:11:21.829Z,1031.07
2019-03-21T05:12:21.887Z,1031.10
2019-03-21T05:13:21.954Z,1031.10
2019-03-21T05:14:22.013Z,1031.11
2019-03-21T05:15:22.065Z,1031.12
2019-03-21T05:16:22.128Z,1031.10
2019-03-21T05:17:22.183Z,1031.08
2019-03-21T05:18:22.284Z,1031.09
2019-03-21T05:19:22.307Z,1031.11
2019-03-21T05:20:22.365Z,1031.12
2019-03-21T05:21:22.424Z,1031.11
2019-03-21T05:22:22.483Z,1031.14
2019-03-21T05:23:22.549Z,1031.18
2019-03-21T05:24:22.605Z,1031.19
2019-03-21T05:25:22.660Z,1031.18
2019-03-21T05:26:22.720Z,1031.21
2019-03-21T05:27:22.779Z,1031.18
2019-03-21T05:28:22.845Z,1031.19
2019-03-21T05:29:22.908Z,1031.14
2019-03-21T05:30:22.956Z,1031.16
2019-03-21T05:31:23.016Z,1031.22
2019-03-21T05:32:23.075Z,1031.20
2019-03-21T05:33:23.155Z,1031.19
2019-03-21T05:34:23.193Z,1031.25
2019-03-21T05:35:23.256Z,1031.21
2019-03-21T05:36:23.317Z,1031.23
2019-03-21T05:37:23.371Z,1031.23
2019-03-21T05:38:23.437Z,1031.25
2019-03-21T05:39:23.527Z,1031.22
2019-03-21T05:40:23.547Z,1031.21
2019-03-21T05:41:23.606Z,1031.23
2019-03-21T05:42:23.669Z,1031.26
2019-03-21T05:43:23.735Z,1031.26
2019-03-21T05:44:23.870Z,1031.24
2019-03-21T05:45:23.846Z,1031.29
2019-03-21T05:46:26.965Z,1031.27
2019-03-21T05:47:23.965Z,1031.29
2019-03-21T05:48:24.031Z,1031.31
2019-03-21T05:49:24.090Z,1031.32
2019-03-21T05:50:24.141Z,1031.32
2019-03-21T05:51:24.207Z,1031.32
2019-03-21T05:52:24.260Z,1031.33
2019-03-21T05:53:24.327Z,1031.37
2019-03-21T05:54:24.387Z,1031.35
2019-03-21T05:55:26.704Z,1031.39
2019-03-21T05:56:24.500Z,1031.41
2019-03-21T05:57:24.576Z,1031.39
2019-03-21T05:58:24.626Z,1031.45
2019-03-21T05:59:24.680Z,1031.41
2019-03-21T06:00:24.735Z,1031.39
2019-03-21T06:01:24.794Z,1031.40
2019-03-21T06:02:24.856Z,1031.45
2019-03-21T06:03:24.928Z,1031.45
2019-03-21T06:04:24.980Z,1031.45
2019-03-21T06:05:25.033Z,1031.46
2019-03-21T06:06:25.113Z,1031.45
2019-03-21T06:07:25.151Z,1031.44
2019-03-21T06:08:25.211Z,1031.43
2019-03-21T06:09:25.305Z,1031.45
2019-03-21T06:10:25.328Z,1031.48
2019-03-21T06:11:25.387Z,1031.53
2019-03-21T06:12:25.447Z,1031.53
2019-03-21T06:13:25.506Z,1031.56
2019-03-21T06:14:25.570Z,1031.56
2019-03-21T06:15:25.632Z,1031.57
2019-03-21T06:16:36.986Z,1031.61
2019-03-21T06:17:25.748Z,1031.58
2019-03-21T06:18:25.806Z,1031.60
2019-03-21T06:19:25.869Z,1031.64
2019-03-21T06:20:25.928Z,1031.62
2019-03-21T06:21:25.984Z,1031.60
2019-03-21T06:22:26.043Z,1031.60
2019-03-21T06:23:26.106Z,1031.61
2019-03-21T06:24:26.179Z,1031.62
2019-03-21T06:25:26.221Z,1031.65
2019-03-21T06:26:26.280Z,1031.64
2019-03-21T06:27:26.339Z,1031.64
2019-03-21T06:28:26.403Z,1031.65
2019-03-21T06:29:26.465Z,1031.62
2019-03-21T06:30:26.524Z,1031.60
2019-03-21T06:31:26.579Z,1031.60
2019-03-21T06:32:26.639Z,1031.58
2019-03-21T06:33:26.698Z,1031.60
2019-03-21T06:34:26.765Z,1031.60
2019-03-21T06:35:26.824Z,1031.61
2019-03-21T06:36:26.875Z,1031.63
2019-03-21T06:37:28.678Z,1031.61
2019-03-21T06:38:26.997Z,1031.59
2019-03-21T06:39:27.061Z,1031.57
2019-03-21T06:40:27.256Z,1031.57
2019-03-21T06:41:27.253Z,1031.60
2019-03-21T06:42:27.236Z,1031.62
2019-03-21T06:43:27.294Z,1031.60
2019-03-21T06:44:27.364Z,1031.61
2019-03-21T06:45:27.424Z,1031.60
2019-03-21T06:46:27.482Z,1031.63
2019-03-21T06:47:27.535Z,1031.62
2019-03-21T06:48:27.593Z,1031.64
2019-03-21T06:49:27.661Z,1031.64
2019-03-21T06:50:27.720Z,1031.63
2019-03-21T06:51:27.771Z,1031.65
2019-03-21T06:52:27.834Z,1031.66
2019-03-21T06:53:27.884Z,1031.66
2019-03-21T06:54:27.967Z,1031.66
2019-03-21T06:55:28.020Z,1031.65
2019-03-21T06:56:28.074Z,1031.64
2019-03-21T06:57:28.133Z,1031.64
2019-03-21T06:58:28.192Z,1031.69
2019-03-21T06:59:28.251Z,1031.70
2019-03-21T07:00:28.454Z,1031.71
2019-03-21T07:01:28.375Z,1031.76
2019-03-21T07:02:28.433Z,1031.76
2019-03-21T07:03:28.493Z,1031.80
2019-03-21T07:04:28.547Z,1031.77
2019-03-21T07:05:28.619Z,1031.77
2019-03-21T07:06:28.681Z,1031.79
2019-03-21T07:07:28.735Z,1031.78
2019-03-21T07:08:28.794Z,1031.79
2019-03-21T07:09:29.266Z,1031.78
2019-03-21T07:10:28.922Z,1031.77
2019-03-21T07:11:28.981Z,1031.77
2019-03-21T07:12:29.036Z,1031.76
2019-03-21T07:13:29.098Z,1031.75
2019-03-21T07:14:29.155Z,1031.70
2019-03-21T07:15:29.230Z,1031.70
2019-03-21T07:16:29.273Z,1031.69
2019-03-21T07:17:29.337Z,1031.71
2019-03-21T07:18:29.396Z,1031.70
2019-03-21T07:19:29.452Z,1031.75
2019-03-21T07:20:29.522Z,1031.73
2019-03-21T07:21:29.585Z,1031.77
2019-03-21T07:22:29.636Z,1031.73
2019-03-21T07:23:29.692Z,1031.71
2019-03-21T07:24:29.754Z,1031.73
2019-03-21T07:25:29.827Z,1031.71
2019-03-21T07:26:29.885Z,1031.71
2019-03-21T07:27:29.936Z,1031.70
2019-03-21T07:28:29.998Z,1031.69
2019-03-21T07:29:30.060Z,1031.72
2019-03-21T07:30:30.469Z,1031.71
2019-03-21T07:31:30.180Z,1031.70
2019-03-21T07:32:33.612Z,1031.69
2019-03-21T07:33:30.303Z,1031.69
2019-03-21T07:34:30.365Z,1031.69
2019-03-21T07:35:30.421Z,1031.71
2019-03-21T07:36:30.496Z,1031.68
2019-03-21T07:37:30.546Z,1031.72
2019-03-21T07:38:30.603Z,1031.71
2019-03-21T07:39:30.668Z,1031.73
2019-03-21T07:40:30.725Z,1031.70
2019-03-21T07:41:30.792Z,1031.78
2019-03-21T07:42:30.856Z,1032.41
2019-03-21T07:43:30.962Z,1032.96
2019-03-21T07:44:30.972Z,1033.05
2019-03-21T07:45:31.033Z,1032.98
2019-03-21T07:46:32.120Z,1033.06
2019-03-21T07:47:31.157Z,1033.09
2019-03-21T07:48:31.222Z,1033.08
2019-03-21T07:49:32.770Z,1033.20
2019-03-21T07:50:31.349Z,1033.26
2019-03-21T07:51:31.412Z,1033.31
2019-03-21T07:52:31.513Z,1033.38
2019-03-21T07:53:31.545Z,1033.41
2019-03-21T07:54:31.608Z,1033.43
2019-03-21T07:55:31.672Z,1033.34
2019-03-21T07:56:31.739Z,1033.50
2019-03-21T07:57:31.809Z,1033.65
2019-03-21T07:58:31.877Z,1033.60
2019-03-21T07:59:31.936Z,1033.38
2019-03-21T08:00:32.007Z,1033.20
2019-03-21T08:01:32.070Z,1032.91
2019-03-21T08:02:32.385Z,1033.14
2019-03-21T08:03:32.203Z,1033.25
2019-03-21T08:04:32.267Z,1033.25
2019-03-21T08:05:40.218Z,1033.25
2019-03-21T08:06:32.406Z,1033.27
2019-03-21T08:07:32.475Z,1033.22
2019-03-21T08:08:32.546Z,1033.20
2019-03-21T08:09:32.684Z,1033.05
2019-03-21T08:10:32.685Z,1032.95
2019-03-21T08:11:32.743Z,1032.73
2019-03-21T08:12:32.817Z,1032.75
2019-03-21T08:13:32.885Z,1032.73
2019-03-21T08:14:32.944Z,1032.66
2019-03-21T08:15:33.012Z,1032.66
2019-03-21T08:16:33.094Z,1032.47
2019-03-21T08:17:33.153Z,1032.45
2019-03-21T08:18:33.243Z,1032.45
2019-03-21T08:19:33.290Z,1032.43
2019-03-21T08:20:33.358Z,1032.46
2019-03-21T08:21:33.428Z,1032.54
2019-03-21T08:22:33.495Z,1032.60
2019-03-21T08:23:33.574Z,1032.65
2019-03-21T08:24:33.645Z,1032.69
2019-03-21T08:25:33.708Z,1032.59
2019-03-21T08:26:33.775Z,1032.59
2019-03-21T08:27:33.846Z,1032.60
2019-03-21T08:28:33.920Z,1032.63
2019-03-21T08:29:33.991Z,1032.53
2019-03-21T08:30:34.054Z,1032.47
2019-03-21T08:31:34.125Z,1032.51
2019-03-21T08:32:34.191Z,1032.52
2019-03-21T08:33:34.287Z,1032.48
2019-03-21T08:34:34.333Z,1032.46
2019-03-21T08:35:34.400Z,1032.45
2019-03-21T08:36:34.472Z,1032.47
2019-03-21T08:37:34.546Z,1032.44
2019-03-21T08:38:34.621Z,1032.44
2019-03-21T08:39:34.688Z,1032.42
2019-03-21T08:40:34.750Z,1032.45
2019-03-21T08:41:34.822Z,1032.40
2019-03-21T08:42:34.897Z,1032.34
2019-03-21T08:43:34.968Z,1032.35
2019-03-21T08:44:35.042Z,1032.33
2019-03-21T08:45:35.103Z,1032.33
2019-03-21T08:46:35.174Z,1032.36
2019-03-21T08:47:37.061Z,1032.36
2019-03-21T08:48:35.361Z,1032.33
2019-03-21T08:49:35.381Z,1032.37
2019-03-21T08:50:35.453Z,1032.35
2019-03-21T08:51:35.519Z,1032.34
2019-03-21T08:52:35.589Z,1032.31
2019-03-21T08:53:35.667Z,1032.27
2019-03-21T08:54:35.735Z,1032.35
2019-03-21T08:55:35.802Z,1032.33
2019-03-21T08:56:35.896Z,1032.37
2019-03-21T08:57:35.940Z,1032.32
2019-03-21T08:58:36.088Z,1032.27
2019-03-21T08:59:36.081Z,1032.31
2019-03-21T09:00:36.147Z,1032.37
2019-03-21T09:01:36.218Z,1032.33
2019-03-21T09:02:36.290Z,1032.33
2019-03-21T09:03:36.366Z,1032.35
2019-03-21T09:04:36.435Z,1032.33
2019-03-21T09:05:36.499Z,1032.29
2019-03-21T09:06:36.570Z,1032.29
2019-03-21T09:07:36.640Z,1032.28
2019-03-21T09:08:36.711Z,1032.33
2019-03-21T09:09:36.786Z,1032.31
2019-03-21T09:10:36.852Z,1032.31
2019-03-21T09:11:36.920Z,1032.36
2019-03-21T09:12:36.986Z,1032.40
2019-03-21T09:13:37.058Z,1032.35
2019-03-21T09:14:37.152Z,1032.36
2019-03-21T09:15:37.196Z,1032.38
2019-03-21T09:16:37.266Z,1032.32
2019-03-21T09:17:37.338Z,1032.33
2019-03-21T09:18:37.408Z,1032.32
2019-03-21T09:19:37.482Z,1032.29
2019-03-21T09:20:37.588Z,1032.29
2019-03-21T09:21:37.613Z,1032.29
2019-03-21T09:22:37.683Z,1032.27
2019-03-21T09:23:37.755Z,1032.23
2019-03-21T09:24:37.833Z,1032.21
2019-03-21T09:25:37.916Z,1032.20
2019-03-21T09:26:37.963Z,1032.19
2019-03-21T09:27:38.030Z,1032.16
2019-03-21T09:28:38.102Z,1032.19
2019-03-21T09:29:38.179Z,1032.14
2019-03-21T09:30:38.239Z,1032.16
2019-03-21T09:31:38.310Z,1032.18
2019-03-21T09:32:38.377Z,1032.15
2019-03-21T09:33:38.447Z,1032.14
2019-03-21T09:34:38.526Z,1032.13
2019-03-21T09:35:38.589Z,1032.12
2019-03-21T09:36:38.653Z,1032.11
2019-03-21T09:37:38.723Z,1032.09
2019-03-21T09:38:38.790Z,1032.14
2019-03-21T09:39:38.868Z,1032.11
2019-03-21T09:40:38.936Z,1032.10
2019-03-21T09:41:39.001Z,1032.06
2019-03-21T09:42:39.066Z,1032.05
2019-03-21T09:43:39.137Z,1032.02
2019-03-21T09:44:39.222Z,1032.02
2019-03-21T09:45:39.275Z,1032.02
2019-03-21T09:46:50.151Z,1032.03
2019-03-21T09:47:39.412Z,1032.00
2019-03-21T09:48:39.479Z,1032.00
2019-03-21T09:49:39.558Z,1032.03
2019-03-21T09:50:39.629Z,1031.99
2019-03-21T09:51:39.684Z,1031.99
2019-03-21T09:52:39.755Z,1031.99
2019-03-21T09:53:39.821Z,1031.98
2019-03-21T09:54:39.895Z,1031.94
2019-03-21T09:55:39.963Z,1031.95
2019-03-21T09:56:40.028Z,1031.94
2019-03-21T09:57:40.096Z,1031.89
2019-03-21T09:58:40.165Z,1031.90
2019-03-21T09:59:40.247Z,1031.94
2019-03-21T10:00:40.301Z,1031.88
2019-03-21T10:01:40.368Z,1031.92
2019-03-21T10:02:40.436Z,1031.92
2019-03-21T10:03:40.504Z,1031.88
2019-03-21T10:04:40.582Z,1031.98
2019-03-21T10:05:40.648Z,1031.94
2019-03-21T10:06:40.712Z,1031.94
2019-03-21T10:07:40.780Z,1031.96
2019-03-21T10:08:40.848Z,1031.95
2019-03-21T10:09:40.924Z,1031.96
2019-03-21T10:10:40.997Z,1031.98
2019-03-21T10:11:41.056Z,1031.92
2019-03-21T10:12:41.117Z,1031.93
2019-03-21T10:13:41.188Z,1031.89
2019-03-21T10:14:41.302Z,1031.88
2019-03-21T10:15:41.328Z,1031.89
2019-03-21T10:16:41.397Z,1031.88
2019-03-21T10:17:41.461Z,1031.89
2019-03-21T10:18:41.536Z,1031.88
2019-03-21T10:19:41.601Z,1031.89
2019-03-21T10:20:41.669Z,1031.87
2019-03-21T10:21:43.595Z,1031.87
2019-03-21T10:22:41.805Z,1031.85
2019-03-21T10:23:41.871Z,1031.86
2019-03-21T10:24:41.961Z,1031.82
2019-03-21T10:25:42.038Z,1031.85
2019-03-21T10:26:42.077Z,1031.85
2019-03-21T10:27:42.137Z,1031.84
2019-03-21T10:28:42.209Z,1031.84
2019-03-21T10:29:42.405Z,1031.83
2019-03-21T10:30:42.345Z,1031.80
2019-03-21T10:31:42.426Z,1031.77
2019-03-21T10:32:42.477Z,1031.74
2019-03-21T10:33:42.549Z,1031.77
2019-03-21T10:34:42.625Z,1031.82
2019-03-21T10:35:42.689Z,1031.72
2019-03-21T10:36:42.754Z,1031.72
2019-03-21T10:37:42.819Z,1031.75
2019-03-21T10:38:42.885Z,1031.73
2019-03-21T10:39:42.962Z,1031.71
2019-03-21T10:40:43.030Z,1031.72
2019-03-21T10:41:43.090Z,1031.72
2019-03-21T10:42:43.161Z,1031.71
2019-03-21T10:43:43.229Z,1031.69
2019-03-21T10:44:43.326Z,1031.70
2019-03-21T10:45:43.362Z,1031.69
2019-03-21T10:46:43.431Z,1031.71
2019-03-21T10:47:43.494Z,1031.70
2019-03-21T10:48:43.562Z,1031.68
2019-03-21T10:49:43.644Z,1031.73
2019-03-21T10:50:43.710Z,1031.67
2019-03-21T10:51:54.444Z,1031.67
2019-03-21T10:52:43.834Z,1031.64
2019-03-21T10:53:43.909Z,1031.64
2019-03-21T10:54:43.978Z,1031.61
2019-03-21T10:55:44.051Z,1031.63
2019-03-21T10:56:44.104Z,1031.64
2019-03-21T10:57:44.171Z,1031.62
2019-03-21T10:58:44.239Z,1031.63
2019-03-21T10:59:44.331Z,1031.62
2019-03-21T11:00:44.371Z,1031.60
2019-03-21T11:01:44.439Z,1031.57
2019-03-21T11:02:44.510Z,1031.56
2019-03-21T11:03:44.587Z,1031.56
2019-03-21T11:04:44.655Z,1031.50
2019-03-21T11:05:44.722Z,1031.55
2019-03-21T11:06:44.784Z,1031.55
2019-03-21T11:07:44.855Z,1031.53
2019-03-21T11:08:44.918Z,1031.55
2019-03-21T11:09:44.984Z,1031.51
2019-03-21T11:10:47.077Z,1031.53
2019-03-21T11:11:45.114Z,1031.54
2019-03-21T11:12:45.180Z,1031.48
2019-03-21T11:13:45.248Z,1031.48
2019-03-21T11:14:45.718Z,1031.46
2019-03-21T11:15:45.380Z,1031.45
2019-03-21T11:16:45.448Z,1031.41
2019-03-21T11:17:45.519Z,1031.42
2019-03-21T11:18:45.587Z,1031.43
2019-03-21T11:19:45.648Z,1031.45
2019-03-21T11:20:45.744Z,1031.41
2019-03-21T11:21:45.789Z,1031.41
2019-03-21T11:22:45.904Z,1031.40
2019-03-21T11:23:45.915Z,1031.41
2019-03-21T11:24:45.988Z,1031.31
2019-03-21T11:25:46.065Z,1031.32
2019-03-21T11:26:46.133Z,1031.26
2019-03-21T11:27:46.235Z,1031.29
2019-03-21T11:28:46.255Z,1031.31
2019-03-21T11:29:46.323Z,1031.28
2019-03-21T11:30:46.401Z,1031.29
2019-03-21T11:31:46.464Z,1031.28
2019-03-21T11:32:46.523Z,1031.25
2019-03-21T11:33:46.589Z,1031.30
2019-03-21T11:34:46.657Z,1031.24
2019-03-21T11:35:46.733Z,1031.22
2019-03-21T11:36:46.797Z,1031.18
2019-03-21T11:37:46.865Z,1031.19
2019-03-21T11:38:46.926Z,1031.13
2019-03-21T11:39:46.993Z,1031.14
2019-03-21T11:40:48.363Z,1031.16
2019-03-21T11:41:47.245Z,1031.14
2019-03-21T11:42:47.211Z,1031.14
2019-03-21T11:43:47.265Z,1031.12
2019-03-21T11:44:47.330Z,1031.11
2019-03-21T11:45:48.024Z,1031.09
2019-03-21T11:46:47.489Z,1031.10
2019-03-21T11:47:47.543Z,1031.10
2019-03-21T11:48:47.599Z,1031.10
2019-03-21T11:49:47.665Z,1031.07
2019-03-21T11:50:47.736Z,1031.06
2019-03-21T11:51:47.852Z,1031.05
2019-03-21T11:52:47.874Z,1031.05
2019-03-21T11:53:47.934Z,1031.03
2019-03-21T11:54:48.002Z,1031.00
2019-03-21T11:55:48.071Z,1030.96
2019-03-21T11:56:48.168Z,1030.94
2019-03-21T11:57:48.206Z,1030.95
2019-03-21T11:58:48.274Z,1030.96
2019-03-21T11:59:51.849Z,1030.95
2019-03-21T12:00:48.406Z,1030.93
2019-03-21T12:01:48.482Z,1030.94
2019-03-21T12:02:48.609Z,1030.94
2019-03-21T12:03:48.611Z,1030.94
2019-03-21T12:04:48.679Z,1030.95
2019-03-21T12:05:48.746Z,1030.92